Time;durP1;ratioP1;P1;durP2;ratioP2;P2;SDS_P1;SDS_P2;PMS_P1;PMS_P2;Temp;Humidity;BMP_temperature;BMP_pressure;BME280_temperature;BME280_humidity;BME280_pressure;Samples;Min_cycle;Max_cycle;Signal;HPM_P1;HPM_P2
2021/07/01 00:01:58;;;;;;;25.60;15.80;;;14.90;93.00;;;;;;5053386;28;20076;-80
2021/07/01 00:21:21;;;;;;;28.77;16.70;;;14.90;93.10;;;;;;5054192;28;20036;-80
2021/07/01 00:23:47;;;;;;;31.85;17.17;;;15.00;93.20;;;;;;5052635;28;20063;-80
2021/07/01 00:26:13;;;;;;;26.13;15.88;;;14.90;93.20;;;;;;5053647;28;20032;-80
2021/07/01 00:28:38;;;;;;;30.70;18.45;;;14.90;93.20;;;;;;5055628;28;20029;-81
2021/07/01 00:31:04;;;;;;;25.75;16.27;;;14.90;93.20;;;;;;5053498;28;20115;-80
2021/07/01 00:33:29;;;;;;;23.92;14.45;;;15.00;93.20;;;;;;5052516;28;20461;-80
2021/07/01 00:35:55;;;;;;;24.60;15.55;;;14.90;93.20;;;;;;5053698;28;20029;-79
2021/07/01 00:38:21;;;;;;;32.17;18.65;;;14.90;93.10;;;;;;5056164;28;20032;-81
2021/07/01 00:40:46;;;;;;;29.98;17.27;;;14.90;93.10;;;;;;5053445;28;20508;-80
2021/07/01 00:43:12;;;;;;;28.75;18.27;;;14.90;93.10;;;;;;5063489;28;20040;-80
2021/07/01 00:45:37;;;;;;;24.42;16.17;;;14.90;93.20;;;;;;5075776;28;20032;-80
2021/07/01 00:48:03;;;;;;;26.63;16.40;;;14.90;93.50;;;;;;5069363;28;20025;-80
2021/07/01 00:50:29;;;;;;;28.60;16.33;;;14.90;93.00;;;;;;5053606;28;20477;-80
2021/07/01 00:52:55;;;;;;;29.73;16.35;;;14.90;93.10;;;;;;5052702;28;20469;-79
2021/07/01 00:55:21;;;;;;;32.03;18.45;;;14.90;93.10;;;;;;5052162;28;20032;-80
2021/07/01 00:57:47;;;;;;;24.83;16.50;;;14.80;93.10;;;;;;5052353;28;20068;-80
2021/07/01 01:00:25;;;;;;;30.42;17.25;;;14.80;93.10;;;;;;5052605;28;20033;-80
2021/07/01 01:02:51;;;;;;;28.42;17.23;;;14.80;93.10;;;;;;5052644;28;20025;-81
2021/07/01 01:05:16;;;;;;;31.98;17.73;;;14.80;93.20;;;;;;5053850;28;20025;-81
2021/07/01 01:07:42;;;;;;;28.05;17.92;;;14.80;93.20;;;;;;5052123;28;20199;-81
2021/07/01 01:10:08;;;;;;;29.88;17.13;;;14.80;93.10;;;;;;5061433;28;20124;-81
2021/07/01 01:12:34;;;;;;;27.77;16.52;;;14.80;93.10;;;;;;5064238;28;20020;-81
2021/07/01 01:15:00;;;;;;;29.60;17.02;;;14.70;93.20;;;;;;5065355;28;20033;-80
2021/07/01 01:17:25;;;;;;;34.95;19.27;;;14.70;93.20;;;;;;5052757;28;20025;-80
2021/07/01 01:19:51;;;;;;;29.52;17.55;;;14.70;93.10;;;;;;5052344;28;20107;-80
2021/07/01 01:22:17;;;;;;;27.25;18.48;;;14.70;93.10;;;;;;5053770;28;20029;-82
2021/07/01 01:24:42;;;;;;;33.05;17.80;;;14.70;93.20;;;;;;5054565;28;20109;-81
2021/07/01 01:27:08;;;;;;;34.58;18.38;;;14.70;93.20;;;;;;5052980;28;20021;-81
2021/07/01 01:29:33;;;;;;;29.38;17.85;;;14.70;93.20;;;;;;5052783;28;20017;-81
2021/07/01 01:31:59;;;;;;;28.67;15.93;;;14.70;93.30;;;;;;5053337;28;20030;-81
2021/07/01 01:34:25;;;;;;;31.30;15.60;;;14.70;93.30;;;;;;5051883;28;20025;-80
2021/07/01 01:36:50;;;;;;;24.77;14.73;;;14.70;93.30;;;;;;5052698;28;20025;-81
2021/07/01 01:39:19;;;;;;;24.70;14.13;;;14.70;93.30;;;;;;5055338;28;20029;-79
2021/07/01 01:41:45;;;;;;;30.77;13.63;;;14.70;93.30;;;;;;5071686;28;20037;-82
2021/07/01 01:44:11;;;;;;;26.05;14.85;;;14.70;93.30;;;;;;5055169;28;20391;-81
2021/07/01 01:46:38;;;;;;;26.38;14.27;;;14.60;93.40;;;;;;5052731;28;20067;-81
2021/07/01 01:49:05;;;;;;;26.33;13.10;;;14.70;93.40;;;;;;5052627;28;20087;-80
2021/07/01 01:51:31;;;;;;;29.52;13.15;;;14.70;93.30;;;;;;5052760;28;20056;-80
2021/07/01 01:53:58;;;;;;;22.65;13.63;;;14.70;93.40;;;;;;5052963;28;20453;-81
2021/07/01 01:56:23;;;;;;;24.13;12.65;;;14.70;93.20;;;;;;5054306;28;20033;-82
2021/07/01 01:58:49;;;;;;;24.88;14.38;;;14.60;93.20;;;;;;5051764;28;20481;-81
2021/07/01 02:01:15;;;;;;;24.55;12.70;;;14.60;93.30;;;;;;5052882;28;20094;-81
2021/07/01 02:03:41;;;;;;;24.08;11.75;;;14.60;93.20;;;;;;5053049;28;20377;-81
2021/07/01 02:06:06;;;;;;;20.92;12.82;;;14.60;93.30;;;;;;5053160;28;20021;-81
2021/07/01 02:08:33;;;;;;;25.20;14.13;;;14.60;93.30;;;;;;5052448;28;20044;-80
2021/07/01 02:10:58;;;;;;;24.35;11.85;;;14.60;93.20;;;;;;5052730;28;20039;-80
2021/07/01 02:13:24;;;;;;;27.80;12.70;;;14.50;93.20;;;;;;5052406;28;20021;-81
2021/07/01 02:15:50;;;;;;;25.17;12.25;;;14.50;93.20;;;;;;5051867;28;20056;-79
2021/07/01 02:18:15;;;;;;;24.30;11.15;;;14.50;93.20;;;;;;5052245;28;20021;-78
2021/07/01 02:20:41;;;;;;;23.20;11.32;;;14.50;93.20;;;;;;5051442;28;20484;-78
2021/07/01 02:23:06;;;;;;;18.92;9.40;;;14.50;93.30;;;;;;5051930;28;20040;-78
2021/07/01 02:25:35;;;;;;;25.85;11.88;;;14.50;93.20;;;;;;5052070;28;20025;-78
2021/07/01 02:28:01;;;;;;;18.92;10.75;;;14.50;93.20;;;;;;5053365;28;20044;-78
2021/07/01 02:30:26;;;;;;;25.45;12.00;;;14.50;93.20;;;;;;5061248;28;20025;-78
2021/07/01 02:32:52;;;;;;;17.55;9.88;;;14.50;93.20;;;;;;5063946;28;20104;-78
2021/07/01 02:35:18;;;;;;;19.95;9.95;;;14.50;93.20;;;;;;5069356;28;20021;-78
2021/07/01 02:37:44;;;;;;;20.20;11.48;;;14.50;93.20;;;;;;5077063;28;20020;-78
2021/07/01 02:40:13;;;;;;;19.23;11.15;;;14.50;93.30;;;;;;5068920;28;20032;-77
2021/07/01 02:42:39;;;;;;;22.55;10.48;;;14.50;93.30;;;;;;5054907;28;20469;-79
2021/07/01 02:45:06;;;;;;;15.45;9.05;;;14.40;93.30;;;;;;5054934;28;20518;-78
2021/07/01 02:47:32;;;;;;;16.52;10.70;;;14.50;93.40;;;;;;5055908;28;20028;-78
2021/07/01 02:49:57;;;;;;;18.52;9.15;;;14.50;93.40;;;;;;5056403;28;20029;-77
2021/07/01 02:52:23;;;;;;;18.33;10.30;;;14.40;93.30;;;;;;5055067;28;20028;-77
2021/07/01 02:54:49;;;;;;;21.67;9.95;;;14.40;93.30;;;;;;5055331;28;20138;-78
2021/07/01 02:57:16;;;;;;;19.75;10.20;;;14.40;93.30;;;;;;5056542;28;20036;-79
2021/07/01 02:59:41;;;;;;;18.92;10.98;;;14.40;93.60;;;;;;5055453;28;20029;-77
2021/07/01 03:02:07;;;;;;;19.67;11.20;;;14.40;93.30;;;;;;5055548;28;20381;-79
2021/07/01 03:04:32;;;;;;;22.67;10.27;;;14.40;93.40;;;;;;5054224;28;20425;-77
2021/07/01 03:06:58;;;;;;;23.55;10.77;;;14.40;93.20;;;;;;5054166;28;20028;-78
2021/07/01 03:09:23;;;;;;;19.73;11.02;;;14.40;93.30;;;;;;5053982;28;20112;-78
2021/07/01 03:11:49;;;;;;;18.38;11.20;;;14.30;93.30;;;;;;5054025;28;20089;-78
2021/07/01 03:14:15;;;;;;;22.17;11.80;;;14.30;93.40;;;;;;5054411;28;20449;-78
2021/07/01 03:16:40;;;;;;;20.75;11.02;;;14.30;93.40;;;;;;5054472;28;20033;-81
2021/07/01 03:19:06;;;;;;;21.58;10.40;;;14.30;93.40;;;;;;5055064;28;20021;-80
2021/07/01 03:21:31;;;;;;;23.25;11.20;;;14.20;93.40;;;;;;5056086;28;20032;-79
2021/07/01 03:23:57;;;;;;;26.58;11.15;;;14.20;93.40;;;;;;5055411;28;20473;-80
2021/07/01 03:26:23;;;;;;;18.65;11.20;;;14.20;93.40;;;;;;5055726;28;20070;-81
2021/07/01 03:28:48;;;;;;;22.95;11.30;;;14.20;93.50;;;;;;5054946;28;20032;-79
2021/07/01 03:31:14;;;;;;;25.00;12.15;;;14.20;93.50;;;;;;5054543;28;20477;-81
2021/07/01 03:33:40;;;;;;;20.58;10.10;;;14.30;93.50;;;;;;5056048;28;20029;-81
2021/07/01 03:36:06;;;;;;;25.77;10.48;;;14.30;93.50;;;;;;5055433;28;20018;-80
2021/07/01 03:38:33;;;;;;;18.00;11.43;;;14.30;93.50;;;;;;5055724;28;20020;-81
2021/07/01 03:40:58;;;;;;;21.17;10.50;;;14.30;93.40;;;;;;5055340;28;20061;-80
2021/07/01 03:43:24;;;;;;;27.65;11.05;;;14.30;93.40;;;;;;5055784;28;20377;-80
2021/07/01 03:45:49;;;;;;;19.42;9.52;;;14.40;93.40;;;;;;5062732;28;20043;-79
2021/07/01 03:48:15;;;;;;;20.30;10.75;;;14.30;93.40;;;;;;5072263;28;20021;-80
2021/07/01 03:50:41;;;;;;;22.77;10.15;;;14.30;93.40;;;;;;5068347;28;20036;-78
2021/07/01 03:53:07;;;;;;;23.15;11.07;;;14.30;93.30;;;;;;5071532;28;20028;-79
2021/07/01 03:55:33;;;;;;;24.70;10.38;;;14.30;93.30;;;;;;5055559;28;20067;-81
2021/07/01 03:57:59;;;;;;;22.25;10.55;;;14.30;93.40;;;;;;5053177;28;20032;-79
2021/07/01 04:00:25;;;;;;;22.88;10.93;;;14.30;93.30;;;;;;5053655;28;20079;-81
2021/07/01 04:02:50;;;;;;;21.92;10.10;;;14.30;93.40;;;;;;5053849;28;20428;-80
2021/07/01 04:05:16;;;;;;;27.50;10.27;;;14.30;93.40;;;;;;5052865;28;20115;-80
2021/07/01 04:07:42;;;;;;;22.95;10.02;;;14.40;93.40;;;;;;5052950;28;20092;-80
2021/07/01 04:10:13;;;;;;;16.75;9.57;;;14.30;93.30;;;;;;5053657;28;20079;-80
2021/07/01 04:12:39;;;;;;;23.33;10.50;;;14.30;93.30;;;;;;5055098;28;20021;-80
2021/07/01 04:15:07;;;;;;;23.17;9.38;;;14.40;93.30;;;;;;5054043;28;20040;-80
2021/07/01 04:17:32;;;;;;;18.83;9.40;;;14.30;93.30;;;;;;5053951;28;20017;-80
2021/07/01 04:19:58;;;;;;;18.65;8.68;;;14.40;93.40;;;;;;5053606;28;20029;-80
2021/07/01 04:22:25;;;;;;;21.95;8.88;;;14.40;93.40;;;;;;5055259;28;20459;-80
2021/07/01 04:24:51;;;;;;;18.17;9.27;;;14.40;93.40;;;;;;5054718;28;20025;-80
2021/07/01 04:27:16;;;;;;;19.10;9.05;;;14.30;93.30;;;;;;5060336;28;20064;-80
2021/07/01 04:29:42;;;;;;;24.27;11.43;;;14.40;93.30;;;;;;5076952;28;20013;-80
2021/07/01 04:32:08;;;;;;;20.38;9.63;;;14.40;93.30;;;;;;5075724;28;20016;-80
2021/07/01 04:34:33;;;;;;;23.02;10.10;;;14.40;93.60;;;;;;5058330;28;20020;-81
2021/07/01 04:37:00;;;;;;;23.63;9.88;;;14.40;93.30;;;;;;5053034;28;20025;-81
2021/07/01 04:39:26;;;;;;;20.38;10.15;;;14.40;93.30;;;;;;5053476;28;20020;-81
2021/07/01 04:41:51;;;;;;;19.83;9.00;;;14.40;93.30;;;;;;5054702;28;20102;-80
2021/07/01 04:44:17;;;;;;;23.02;10.70;;;14.40;93.30;;;;;;5053861;28;20025;-81
2021/07/01 04:46:43;;;;;;;23.05;10.38;;;14.40;93.40;;;;;;5053896;28;20021;-81
2021/07/01 04:49:08;;;;;;;21.80;9.68;;;14.40;93.30;;;;;;5054110;28;20481;-79
2021/07/01 04:51:34;;;;;;;23.35;10.55;;;14.40;93.30;;;;;;5054006;28;20064;-81
2021/07/01 04:53:59;;;;;;;20.08;9.27;;;14.30;93.20;;;;;;5053947;28;20309;-81
2021/07/01 04:56:25;;;;;;;15.10;8.27;;;14.40;93.20;;;;;;5054032;28;20040;-81
2021/07/01 04:58:50;;;;;;;28.45;10.68;;;14.30;93.20;;;;;;5052282;28;20068;-81
2021/07/01 05:01:16;;;;;;;24.67;10.40;;;14.30;93.30;;;;;;5053727;28;20032;-80
2021/07/01 05:03:42;;;;;;;21.80;11.98;;;14.30;93.10;;;;;;5065653;28;20032;-80
2021/07/01 05:06:07;;;;;;;19.30;10.68;;;14.20;93.20;;;;;;5067864;28;20028;-80
2021/07/01 05:08:33;;;;;;;20.08;8.60;;;14.20;93.20;;;;;;5069593;28;20586;-80
2021/07/01 05:10:59;;;;;;;27.20;11.77;;;14.20;93.20;;;;;;5070906;28;20021;-79
2021/07/01 05:13:24;;;;;;;24.85;10.63;;;14.20;93.30;;;;;;5070016;28;20465;-81
2021/07/01 05:15:50;;;;;;;29.77;11.77;;;14.20;93.30;;;;;;5065951;28;20466;-80
2021/07/01 05:18:16;;;;;;;26.35;12.27;;;14.20;93.40;;;;;;5057888;28;20017;-80
2021/07/01 05:20:44;;;;;;;22.83;10.32;;;14.20;93.50;;;;;;5053908;28;20025;-80
2021/07/01 05:23:10;;;;;;;29.83;12.70;;;14.10;93.60;;;;;;5055933;28;20028;-79
2021/07/01 05:25:35;;;;;;;25.00;12.05;;;14.30;93.60;;;;;;5055191;28;20096;-81
2021/07/01 05:28:11;;;;;;;26.42;11.70;;;14.20;93.60;;;;;;5053068;28;20021;-80
2021/07/01 05:30:37;;;;;;;23.40;11.18;;;14.30;93.80;;;;;;5054081;28;20500;-80
2021/07/01 05:33:04;;;;;;;22.33;12.98;;;14.30;93.40;;;;;;5053027;28;20025;-80
2021/07/01 05:35:29;;;;;;;24.90;12.00;;;14.30;93.50;;;;;;5053534;28;20025;-80
2021/07/01 05:37:55;;;;;;;21.45;10.43;;;14.30;93.40;;;;;;5053079;28;20044;-80
2021/07/01 05:40:22;;;;;;;23.13;11.20;;;14.30;93.40;;;;;;5053002;28;20048;-80
2021/07/01 05:42:48;;;;;;;24.45;12.40;;;14.30;93.40;;;;;;5052809;28;20025;-81
2021/07/01 05:45:14;;;;;;;22.52;12.13;;;14.30;93.50;;;;;;5053289;28;20480;-79
2021/07/01 05:47:40;;;;;;;19.45;10.35;;;14.30;93.80;;;;;;5053814;28;20151;-79
2021/07/01 05:50:07;;;;;;;25.55;13.68;;;14.30;93.50;;;;;;5057448;28;20059;-79
2021/07/01 05:52:35;;;;;;;22.85;11.73;;;14.30;93.40;;;;;;5069442;28;20032;-78
2021/07/01 05:55:00;;;;;;;22.05;11.63;;;14.30;93.40;;;;;;5055977;28;20025;-79
2021/07/01 05:57:28;;;;;;;23.20;12.35;;;14.30;93.50;;;;;;5053432;28;20104;-79
2021/07/01 05:59:54;;;;;;;25.80;11.80;;;14.30;93.50;;;;;;5052105;28;20025;-80
2021/07/01 06:02:20;;;;;;;22.55;11.48;;;14.30;93.50;;;;;;5053386;28;20036;-80
2021/07/01 06:04:45;;;;;;;24.35;12.68;;;14.30;93.40;;;;;;5053690;28;20381;-80
2021/07/01 06:07:19;;;;;;;26.60;11.65;;;14.30;93.50;;;;;;5057164;28;20025;-79
2021/07/01 06:09:46;;;;;;;15.20;10.32;;;14.40;93.50;;;;;;5057347;28;20082;-80
2021/07/01 06:12:12;;;;;;;19.23;11.75;;;14.40;93.50;;;;;;5057045;28;20497;-80
2021/07/01 06:14:39;;;;;;;21.23;10.55;;;14.40;93.50;;;;;;5057485;28;20461;-80
2021/07/01 06:17:06;;;;;;;17.98;10.40;;;14.40;93.50;;;;;;5055751;28;20026;-78
2021/07/01 06:19:33;;;;;;;20.55;11.20;;;14.40;93.50;;;;;;5076691;28;20024;-80
2021/07/01 06:21:59;;;;;;;17.58;9.13;;;14.40;93.50;;;;;;5078084;28;20033;-79
2021/07/01 06:24:28;;;;;;;18.10;10.30;;;14.40;93.60;;;;;;5072562;28;20108;-79
2021/07/01 06:26:54;;;;;;;14.98;8.40;;;14.40;93.40;;;;;;5055999;28;20079;-79
2021/07/01 06:29:19;;;;;;;17.10;10.57;;;14.50;93.40;;;;;;5055934;28;20521;-79
2021/07/01 06:31:45;;;;;;;18.50;9.82;;;14.50;93.50;;;;;;5055696;28;20052;-79
2021/07/01 06:34:13;;;;;;;17.52;9.63;;;14.60;93.50;;;;;;5056648;28;20031;-78
2021/07/01 06:36:42;;;;;;;19.13;9.25;;;14.60;93.50;;;;;;5057120;28;20025;-79
2021/07/01 06:39:08;;;;;;;24.20;11.27;;;14.60;93.50;;;;;;5056419;28;20013;-80
2021/07/01 06:41:37;;;;;;;15.65;7.95;;;14.60;93.40;;;;;;5056641;28;20035;-79
2021/07/01 06:44:06;;;;;;;19.70;9.43;;;14.70;93.40;;;;;;5055640;28;20458;-81
2021/07/01 06:46:33;;;;;;;14.13;9.27;;;14.70;93.30;;;;;;5056213;28;20052;-80
2021/07/01 06:49:00;;;;;;;23.65;10.38;;;14.70;93.20;;;;;;5055906;28;20124;-80
2021/07/01 06:51:26;;;;;;;22.98;9.75;;;14.70;93.10;;;;;;5057693;28;20405;-80
2021/07/01 06:53:53;;;;;;;19.25;9.25;;;14.70;93.10;;;;;;5055505;28;20021;-80
2021/07/01 06:56:21;;;;;;;21.98;10.15;;;14.70;93.20;;;;;;5055849;28;20024;-80
2021/07/01 06:58:49;;;;;;;22.02;10.07;;;14.70;93.30;;;;;;5056113;28;20029;-79
2021/07/01 07:01:14;;;;;;;26.88;12.93;;;14.80;93.50;;;;;;5055669;28;20056;-81
2021/07/01 07:03:43;;;;;;;20.45;10.68;;;14.70;93.20;;;;;;5055938;28;20029;-81
2021/07/01 07:06:09;;;;;;;25.92;11.57;;;14.80;93.10;;;;;;5055791;28;20477;-80
2021/07/01 07:08:36;;;;;;;23.75;12.95;;;14.80;93.20;;;;;;5056383;28;20029;-81
2021/07/01 07:11:02;;;;;;;22.02;11.32;;;14.80;93.20;;;;;;5056461;28;20373;-80
2021/07/01 07:13:28;;;;;;;24.65;12.90;;;14.90;93.20;;;;;;5057027;28;20021;-80
2021/07/01 07:15:57;;;;;;;22.70;10.90;;;14.90;93.30;;;;;;5054220;28;20021;-81
2021/07/01 07:18:34;;;;;;;30.98;13.23;;;15.00;93.30;;;;;;5055051;28;20078;-80
2021/07/01 07:21:14;;;;;;;27.92;14.10;;;15.00;93.00;;;;;;5055097;28;20021;-80
2021/07/01 07:23:39;;;;;;;24.87;13.03;;;15.00;93.00;;;;;;5055396;28;20182;-80
2021/07/01 07:26:16;;;;;;;25.40;11.30;;;15.00;93.00;;;;;;5056121;28;20071;-79
2021/07/01 07:28:43;;;;;;;30.13;14.52;;;15.00;92.70;;;;;;5056014;28;20587;-80
2021/07/01 07:31:17;;;;;;;25.38;13.32;;;15.00;93.10;;;;;;5055573;28;20021;-80
2021/07/01 07:33:43;;;;;;;26.05;12.35;;;15.00;92.90;;;;;;5055890;28;20025;-80
2021/07/01 07:36:10;;;;;;;24.52;12.88;;;15.00;92.90;;;;;;5055306;28;20028;-79
2021/07/01 07:38:36;;;;;;;30.02;14.55;;;15.00;93.00;;;;;;5055462;28;20017;-80
2021/07/01 07:41:01;;;;;;;31.85;15.25;;;15.00;93.10;;;;;;5054820;28;20039;-80
2021/07/01 07:43:27;;;;;;;23.52;11.05;;;15.00;93.10;;;;;;5055031;28;20025;-79
2021/07/01 07:45:54;;;;;;;33.92;14.63;;;14.90;93.20;;;;;;5055249;28;20021;-79
2021/07/01 07:48:20;;;;;;;27.73;13.60;;;15.00;93.30;;;;;;5055616;28;20033;-81
2021/07/01 07:50:51;;;;;;;22.38;12.40;;;15.00;93.20;;;;;;5055562;28;20479;-79
2021/07/01 07:53:22;;;;;;;32.90;14.07;;;15.10;93.10;;;;;;5057547;28;20024;-80
2021/07/01 07:55:52;;;;;;;22.00;11.73;;;15.10;93.10;;;;;;5063533;28;20013;-79
2021/07/01 07:58:18;;;;;;;;;;;15.10;93.00;;;;;;5067747;28;20115;-80
2021/07/01 08:00:44;;;;;;;22.75;10.65;;;15.10;93.00;;;;;;5054818;28;19912;-80
2021/07/01 08:03:12;;;;;;;29.05;14.18;;;15.10;93.00;;;;;;5054311;28;20025;-79
2021/07/01 08:05:39;;;;;;;27.05;12.68;;;15.10;93.20;;;;;;5054686;28;20033;-80
2021/07/01 08:08:11;;;;;;;27.95;13.35;;;15.10;93.20;;;;;;5054308;28;20471;-80
2021/07/01 08:10:40;;;;;;;24.95;12.10;;;15.20;93.20;;;;;;5058713;28;20032;-80
2021/07/01 08:13:07;;;;;;;29.00;15.60;;;15.20;93.20;;;;;;5076505;28;20024;-80
2021/07/01 08:15:35;;;;;;;25.95;13.57;;;15.20;93.20;;;;;;5075397;28;20096;-80
2021/07/01 08:18:04;;;;;;;27.90;13.02;;;15.20;93.20;;;;;;5057790;28;20036;-83
2021/07/01 08:20:30;;;;;;;27.30;14.73;;;15.20;93.10;;;;;;5054449;28;20032;-81
2021/07/01 08:22:57;;;;;;;28.17;15.23;;;15.20;93.00;;;;;;5053836;28;20390;-81
2021/07/01 08:25:27;;;;;;;29.63;13.98;;;15.20;93.10;;;;;;5054156;28;20047;-79
2021/07/01 08:27:54;;;;;;;28.15;13.27;;;15.20;93.40;;;;;;5053778;28;20027;-81
2021/07/01 08:30:25;;;;;;;31.42;16.05;;;15.20;93.00;;;;;;5054265;28;20025;-83
2021/07/01 08:32:58;;;;;;;33.97;15.73;;;15.20;93.00;;;;;;5054331;28;20029;-81
2021/07/01 08:35:26;;;;;;;32.67;15.23;;;15.20;93.10;;;;;;5053907;28;20017;-81
2021/07/01 08:37:57;;;;;;;29.30;15.25;;;15.20;93.20;;;;;;5053777;28;20017;-82
2021/07/01 08:40:34;;;;;;;36.40;15.90;;;15.30;93.20;;;;;;5054324;28;20025;-80
2021/07/01 08:43:01;;;;;;;26.90;14.32;;;15.30;93.10;;;;;;5053790;28;20124;-79
2021/07/01 08:45:40;;;;;;;38.22;16.85;;;15.30;93.20;;;;;;5053908;28;20064;-81
2021/07/01 08:48:17;;;;;;;31.95;17.30;;;15.30;93.30;;;;;;5052858;28;20052;-81
2021/07/01 08:50:53;;;;;;;30.58;15.10;;;15.40;93.30;;;;;;5053264;28;20021;-81
2021/07/01 08:53:45;;;;;;;37.28;16.38;;;15.40;93.30;;;;;;5053381;28;20052;-79
2021/07/01 08:56:13;;;;;;;43.15;19.38;;;15.40;93.40;;;;;;5053096;28;20078;-78
2021/07/01 08:58:47;;;;;;;40.15;17.58;;;15.30;93.30;;;;;;5052717;28;20512;-80
2021/07/01 09:01:13;;;;;;;38.05;16.40;;;15.40;93.40;;;;;;5053025;28;20037;-80
2021/07/01 09:03:43;;;;;;;38.25;16.55;;;15.40;93.30;;;;;;5052819;28;20033;-80
2021/07/01 09:06:21;;;;;;;28.83;14.70;;;15.40;93.30;;;;;;5052960;28;20466;-79
2021/07/01 09:08:48;;;;;;;31.35;15.15;;;15.50;93.40;;;;;;5053266;28;20021;-79
2021/07/01 09:11:16;;;;;;;38.72;17.35;;;15.50;93.10;;;;;;5053152;28;20060;-79
2021/07/01 09:13:46;;;;;;;34.40;16.55;;;15.50;93.10;;;;;;5053107;28;20032;-80
2021/07/01 09:16:14;;;;;;;32.78;15.93;;;15.50;93.10;;;;;;5052700;28;20098;-82
2021/07/01 09:18:40;;;;;;;28.75;13.88;;;15.50;93.00;;;;;;5053088;28;20025;-80
2021/07/01 09:21:06;;;;;;;32.80;15.68;;;15.50;93.00;;;;;;5052327;28;20097;-80
2021/07/01 09:23:33;;;;;;;32.38;16.23;;;15.50;93.10;;;;;;5052650;28;20025;-80
2021/07/01 09:26:05;;;;;;;36.60;17.38;;;15.50;93.20;;;;;;5052731;28;20528;-78
2021/07/01 09:28:30;;;;;;;32.08;14.00;;;15.50;93.20;;;;;;5053587;28;20028;-79
2021/07/01 09:30:58;;;;;;;34.67;16.10;;;15.50;93.00;;;;;;5054328;28;20075;-79
2021/07/01 09:33:24;;;;;;;34.58;15.70;;;15.60;93.10;;;;;;5053052;28;20098;-78
2021/07/01 09:35:50;;;;;;;36.35;15.93;;;15.50;93.30;;;;;;5053550;28;20128;-79
2021/07/01 09:38:16;;;;;;;33.20;15.45;;;15.60;93.20;;;;;;5052143;28;20508;-78
2021/07/01 09:40:42;;;;;;;30.58;13.27;;;15.50;93.10;;;;;;5055683;28;20021;-79
2021/07/01 09:43:08;;;;;;;41.28;16.45;;;15.50;93.20;;;;;;5056136;28;20358;-79
2021/07/01 09:45:35;;;;;;;37.30;15.25;;;15.50;93.20;;;;;;5056338;28;20118;-79
2021/07/01 09:48:06;;;;;;;33.00;15.18;;;15.50;93.20;;;;;;5055758;28;20025;-78
2021/07/01 09:50:34;;;;;;;41.40;13.52;;;15.50;93.30;;;;;;5055894;28;20028;-78
2021/07/01 09:53:03;;;;;;;34.00;14.27;;;15.50;93.20;;;;;;5057746;28;20025;-79
2021/07/01 09:55:31;;;;;;;33.22;14.02;;;15.50;93.20;;;;;;5059623;28;20025;-79
2021/07/01 09:58:03;;;;;;;36.00;15.77;;;15.50;93.20;;;;;;5060660;28;20074;-78
2021/07/01 10:00:31;;;;;;;38.20;14.82;;;15.50;93.30;;;;;;5073668;28;20052;-78
2021/07/01 10:03:08;;;;;;;29.75;14.63;;;15.50;93.30;;;;;;5063653;28;20461;-78
2021/07/01 10:05:37;;;;;;;41.38;15.88;;;15.50;93.30;;;;;;5059200;28;20055;-78
2021/07/01 10:08:07;;;;;;;34.20;14.68;;;15.50;93.30;;;;;;5079076;28;20009;-78
2021/07/01 10:10:43;;;;;;;39.03;15.43;;;15.50;93.30;;;;;;5073743;28;20032;-78
2021/07/01 10:13:11;;;;;;;34.72;15.25;;;15.50;93.30;;;;;;5056159;28;20116;-78
2021/07/01 10:15:37;;;;;;;32.80;13.40;;;15.50;93.30;;;;;;5055586;28;20032;-80
2021/07/01 10:18:10;;;;;;;30.35;14.23;;;15.50;93.30;;;;;;5055599;28;20361;-79
2021/07/01 10:20:44;;;;;;;37.47;15.00;;;15.60;93.30;;;;;;5055669;28;20025;-79
2021/07/01 10:23:23;;;;;;;42.67;16.13;;;15.60;93.30;;;;;;5055083;28;20025;-79
2021/07/01 10:25:51;;;;;;;37.03;15.52;;;15.60;93.30;;;;;;5054983;28;20027;-80
2021/07/01 10:28:19;;;;;;;43.33;16.80;;;15.60;93.60;;;;;;5055192;28;20120;-78
2021/07/01 10:31:01;;;;;;;32.05;16.20;;;15.70;93.40;;;;;;5055887;28;20091;-78
2021/07/01 10:33:29;;;;;;;32.47;15.02;;;15.70;93.30;;;;;;5056148;28;20021;-79
2021/07/01 10:36:02;;;;;;;37.05;17.00;;;15.70;93.40;;;;;;5056047;28;20029;-79
2021/07/01 10:38:58;;;;;;;42.53;17.27;;;15.70;93.40;;;;;;5055903;28;20052;-79
2021/07/01 10:41:32;;;;;;;31.63;14.48;;;15.80;93.30;;;;;;5056835;28;20108;-78
2021/07/01 10:44:00;;;;;;;38.13;16.67;;;15.80;93.30;;;;;;5055441;28;20021;-79
2021/07/01 10:46:43;;;;;;;34.22;15.32;;;15.90;93.30;;;;;;5056312;28;20085;-78
2021/07/01 10:49:10;;;;;;;30.25;15.57;;;15.80;93.30;;;;;;5055029;28;20044;-78
2021/07/01 10:51:36;;;;;;;36.72;15.82;;;15.90;93.30;;;;;;5056191;28;20449;-80
2021/07/01 10:54:10;;;;;;;35.13;15.38;;;15.90;93.30;;;;;;5055058;28;20523;-77
2021/07/01 10:56:41;;;;;;;43.50;17.55;;;15.90;93.20;;;;;;5054885;28;20103;-78
2021/07/01 10:59:08;;;;;;;37.88;15.48;;;15.90;93.20;;;;;;5054835;28;20028;-78
2021/07/01 11:01:37;;;;;;;30.10;14.98;;;16.00;93.30;;;;;;5055166;28;20052;-78
2021/07/01 11:04:03;;;;;;;33.70;15.88;;;16.00;93.20;;;;;;5054576;28;20032;-78
2021/07/01 11:06:30;;;;;;;39.05;15.27;;;16.00;93.10;;;;;;5054161;28;20117;-78
2021/07/01 11:08:56;;;;;;;40.00;16.65;;;16.10;93.10;;;;;;5054351;28;20051;-78
2021/07/01 11:11:23;;;;;;;33.22;16.20;;;16.10;93.00;;;;;;5054269;28;20117;-78
2021/07/01 11:13:55;;;;;;;32.88;15.68;;;16.10;93.00;;;;;;5054864;28;20060;-79
2021/07/01 11:16:35;;;;;;;41.47;15.48;;;16.20;93.10;;;;;;5054104;28;20031;-79
2021/07/01 11:19:01;;;;;;;30.00;15.07;;;16.20;93.10;;;;;;5054330;28;20035;-78
2021/07/01 11:21:27;;;;;;;38.47;16.02;;;16.20;93.10;;;;;;5054524;28;20283;-79
2021/07/01 11:24:12;;;;;;;33.55;15.65;;;16.20;93.00;;;;;;5054297;28;20061;-78
2021/07/01 11:26:38;;;;;;;35.75;15.02;;;16.30;92.90;;;;;;5054663;28;20070;-78
2021/07/01 11:29:08;;;;;;;33.45;14.93;;;16.30;93.00;;;;;;5053697;28;20025;-79
2021/07/01 11:31:46;;;;;;;30.50;15.65;;;16.30;93.00;;;;;;5054138;28;20049;-79
2021/07/01 11:34:17;;;;;;;32.03;16.00;;;16.30;93.00;;;;;;5055812;28;20500;-79
2021/07/01 11:36:51;;;;;;;33.67;15.85;;;16.30;92.90;;;;;;5054444;28;20025;-79
2021/07/01 11:39:22;;;;;;;36.67;17.83;;;16.30;92.90;;;;;;5055455;28;20108;-79
2021/07/01 11:41:48;;;;;;;40.42;16.50;;;16.30;92.90;;;;;;5055156;28;20039;-79
2021/07/01 11:44:13;;;;;;;36.63;16.45;;;16.30;92.90;;;;;;5055273;28;20021;-78
2021/07/01 11:46:41;;;;;;;31.40;15.27;;;16.40;92.90;;;;;;5056199;28;20043;-78
2021/07/01 11:49:08;;;;;;;30.20;13.93;;;16.50;92.90;;;;;;5055156;28;20031;-77
2021/07/01 11:51:35;;;;;;;30.40;16.08;;;16.50;92.90;;;;;;5055732;28;20481;-79
2021/07/01 11:54:01;;;;;;;24.20;12.73;;;16.60;92.60;;;;;;5054582;28;20492;-79
2021/07/01 11:56:27;;;;;;;24.85;11.73;;;16.60;92.30;;;;;;5055174;28;20017;-79
2021/07/01 11:58:53;;;;;;;30.10;11.93;;;16.70;91.80;;;;;;5059610;28;20033;-78
2021/07/01 12:01:19;;;;;;;27.08;11.60;;;16.70;91.70;;;;;;5076782;28;20048;-79
2021/07/01 12:03:51;;;;;;;25.45;10.82;;;16.70;91.70;;;;;;5073896;28;20017;-76
2021/07/01 12:06:44;;;;;;;30.95;13.73;;;16.70;90.70;;;;;;5055835;28;20102;-79
2021/07/01 12:09:14;;;;;;;24.88;11.25;;;16.80;91.30;;;;;;5054227;28;20062;-78
2021/07/01 12:12:01;;;;;;;21.83;9.95;;;16.90;91.10;;;;;;5054351;28;20116;-79
2021/07/01 12:14:31;;;;;;;18.88;10.50;;;17.10;91.20;;;;;;5053347;28;20090;-79
2021/07/01 12:16:57;;;;;;;26.83;11.40;;;17.10;90.70;;;;;;5053798;28;20382;-79
2021/07/01 12:19:45;;;;;;;26.15;11.20;;;17.20;90.10;;;;;;5053312;28;20025;-79
2021/07/01 12:22:49;;;;;;;23.77;9.15;;;17.20;90.30;;;;;;5053387;28;20060;-79
2021/07/01 12:25:19;;;;;;;27.40;10.60;;;17.20;90.00;;;;;;5054021;28;20116;-80
2021/07/01 12:27:45;;;;;;;28.58;9.93;;;17.20;90.00;;;;;;5053820;28;20071;-80
2021/07/01 12:30:11;;;;;;;25.92;11.25;;;17.30;90.20;;;;;;5053632;28;20156;-79
2021/07/01 12:32:37;;;;;;;20.58;10.38;;;17.30;90.30;;;;;;5053980;28;20021;-80
2021/07/01 12:35:37;;;;;;;24.52;10.40;;;17.40;90.10;;;;;;5053975;28;20078;-80
2021/07/01 12:38:11;;;;;;;30.73;10.52;;;17.50;90.20;;;;;;5033608;28;20463;-80
2021/07/01 12:40:53;;;;;;;28.60;10.88;;;17.70;89.50;;;;;;5052859;28;20028;-80
2021/07/01 12:43:47;;;;;;;23.88;9.93;;;17.70;89.20;;;;;;5053193;28;20033;-80
2021/07/01 12:46:41;;;;;;;21.80;8.57;;;17.90;88.70;;;;;;5053790;28;20054;-80
2021/07/01 12:49:33;;;;;;;23.13;8.80;;;18.00;88.00;;;;;;5054018;28;20025;-80
2021/07/01 12:51:59;;;;;;;22.35;8.13;;;18.00;86.40;;;;;;5038511;28;20040;-80